createdAt,value
2022-11-25T00:03:20.334Z,100725.75
2022-11-25T00:08:22.111Z,100732.69
2022-11-25T00:13:23.945Z,100730.69
2022-11-25T00:18:27.161Z,100733.31
2022-11-25T00:23:33.166Z,100732.56
2022-11-25T00:28:35.389Z,100735.72
2022-11-25T00:33:38.636Z,100725.59
2022-11-25T00:38:40.545Z,100724.22
2022-11-25T00:44:21.150Z,100731.03
2022-11-25T00:49:25.089Z,100730.97
2022-11-25T00:54:26.903Z,100732.66
2022-11-25T00:59:29.078Z,100734.44
2022-11-25T01:04:32.298Z,100728.38
2022-11-25T01:09:34.342Z,100728.09
2022-11-25T01:14:38.921Z,100727.97
2022-11-25T01:19:42.332Z,100727.03
2022-11-25T01:24:44.136Z,100731.38
2022-11-25T01:29:46.071Z,100722.75
2022-11-25T01:34:49.863Z,100712.66
2022-11-25T01:39:51.683Z,100720.16
2022-11-25T01:45:26.592Z,100712.06
2022-11-25T01:50:31.717Z,100705.25
2022-11-25T01:55:35.958Z,100695.00
2022-11-25T02:00:38.821Z,100689.56
2022-11-25T02:05:45.930Z,100696.44
2022-11-25T02:10:49.143Z,100678.72
2022-11-25T02:15:53.074Z,100668.63
2022-11-25T02:20:56.385Z,100674.63
2022-11-25T02:26:00.451Z,100686.06
2022-11-25T02:31:03.099Z,100681.97
2022-11-25T02:36:06.872Z,100678.53
2022-11-25T02:41:10.958Z,100682.19
2022-11-25T02:46:20.356Z,100694.06
2022-11-25T02:51:24.724Z,100697.34
2022-11-25T02:56:29.270Z,100694.28
2022-11-25T03:01:31.662Z,100693.59
2022-11-25T03:06:33.950Z,100695.31
2022-11-25T03:12:12.549Z,100687.41
2022-11-25T03:17:14.799Z,100697.06
2022-11-25T03:22:16.622Z,100687.44
2022-11-25T03:27:19.777Z,100696.50
2022-11-25T03:32:21.709Z,100692.22
2022-11-25T03:37:23.736Z,100696.34
2022-11-25T03:42:26.993Z,100692.97
2022-11-25T03:47:31.587Z,100692.09
2022-11-25T03:52:33.667Z,100691.91
2022-11-25T03:57:38.102Z,100684.34
2022-11-25T04:02:41.408Z,100685.25
2022-11-25T04:07:44.012Z,100690.00
2022-11-25T04:12:47.991Z,100694.00
2022-11-25T04:17:57.330Z,100704.38
2022-11-25T04:22:59.829Z,100697.41
2022-11-25T04:28:04.274Z,100691.06
2022-11-25T04:33:08.831Z,100691.13
2022-11-25T04:38:10.727Z,100695.63
2022-11-25T04:43:15.103Z,100692.03
2022-11-25T04:48:25.122Z,100689.41
2022-11-25T04:53:27.069Z,100694.25
2022-11-25T04:58:50.571Z,100684.78
2022-11-25T05:03:57.348Z,100694.41
2022-11-25T05:09:00.986Z,100694.41
2022-11-25T05:14:05.030Z,100692.69
2022-11-25T05:19:07.515Z,100697.38
2022-11-25T05:24:09.323Z,100694.56
2022-11-25T05:29:13.732Z,100707.44
2022-11-25T05:34:16.139Z,100698.63
2022-11-25T05:39:19.543Z,100693.56
2022-11-25T05:44:43.728Z,100709.81
2022-11-25T05:49:45.671Z,100703.72
2022-11-25T05:54:47.513Z,100688.53
2022-11-25T05:59:50.765Z,100688.13
2022-11-25T06:05:00.266Z,100687.38
2022-11-25T06:10:03.495Z,100685.44
2022-11-25T06:15:11.011Z,100688.09
2022-11-25T06:20:14.459Z,100678.25
2022-11-25T06:25:16.418Z,100671.41
2022-11-25T06:30:20.068Z,100684.06
2022-11-25T06:35:34.764Z,100695.91
2022-11-25T06:40:37.824Z,100690.66
2022-11-25T06:45:41.028Z,100688.03
2022-11-25T06:50:42.904Z,100689.88
2022-11-25T06:55:44.682Z,100687.94
2022-11-25T07:00:47.895Z,100699.84
2022-11-25T07:05:49.640Z,100712.16
2022-11-25T07:10:51.548Z,100701.63
2022-11-25T07:15:54.699Z,100713.13
2022-11-25T07:20:56.501Z,100719.81
2022-11-25T07:26:02.068Z,100717.09
2022-11-25T07:31:23.803Z,100731.00
2022-11-25T07:36:26.793Z,100734.13
2022-11-25T07:41:28.676Z,100741.38
2022-11-25T07:46:32.460Z,100741.59
2022-11-25T07:51:35.051Z,100759.94
2022-11-25T07:56:38.275Z,100763.47
2022-11-25T08:01:41.691Z,100763.75
2022-11-25T08:06:44.695Z,100761.34
2022-11-25T08:11:46.675Z,100762.66
2022-11-25T08:16:49.795Z,100767.19
2022-11-25T08:21:51.614Z,100767.03
2022-11-25T08:26:54.912Z,100775.97
2022-11-25T08:31:58.464Z,100775.22
2022-11-25T08:37:00.332Z,100773.78
2022-11-25T08:42:02.522Z,100786.16
2022-11-25T08:47:05.705Z,100785.34
2022-11-25T08:52:08.945Z,100792.22
2022-11-25T08:57:10.766Z,100786.09
2022-11-25T09:02:15.414Z,100781.63
2022-11-25T09:07:17.251Z,100794.66
2022-11-25T09:12:19.154Z,100788.63
2022-11-25T09:17:22.318Z,100792.34
2022-11-25T09:22:24.135Z,100797.63
2022-11-25T09:27:25.883Z,100807.31
2022-11-25T09:32:29.247Z,100817.03
2022-11-25T09:37:31.017Z,100812.75
2022-11-25T09:43:05.976Z,100817.69
2022-11-25T09:48:19.196Z,100817.50
2022-11-25T09:53:26.592Z,100818.50
2022-11-25T09:58:32.250Z,100819.47
2022-11-25T10:03:38.051Z,100816.06
2022-11-25T10:08:40.479Z,100810.81
2022-11-25T10:13:47.037Z,100818.59
2022-11-25T10:18:52.393Z,100816.13
2022-11-25T10:23:54.177Z,100823.09
2022-11-25T10:29:00.155Z,100821.34
2022-11-25T10:34:10.766Z,100820.41
2022-11-25T10:39:14.238Z,100817.97
2022-11-25T10:44:19.920Z,100808.44
2022-11-25T10:49:25.782Z,100817.31
2022-11-25T10:54:28.288Z,100814.56
2022-11-25T10:59:30.850Z,100824.19
2022-11-25T11:04:34.699Z,100827.69
2022-11-25T11:09:37.426Z,100829.50
2022-11-25T11:14:39.301Z,100830.41
2022-11-25T11:19:42.398Z,100828.69
2022-11-25T11:24:44.504Z,100829.56
2022-11-25T11:29:46.274Z,100833.91
2022-11-25T11:34:55.298Z,100828.69
2022-11-25T11:40:14.900Z,100831.31
2022-11-25T11:45:28.986Z,100835.72
2022-11-25T11:50:32.602Z,100833.94
2022-11-25T11:56:33.151Z,100836.53
2022-11-25T12:01:29.431Z,100840.91
2022-11-25T12:06:33.486Z,100845.25
2022-11-25T12:11:36.828Z,100845.25
2022-11-25T12:16:40.646Z,100840.84
2022-11-25T12:21:46.831Z,100847.03
2022-11-25T12:26:51.226Z,100848.78
2022-11-25T12:31:56.268Z,100847.91
2022-11-25T12:37:04.115Z,100850.50
2022-11-25T12:42:10.173Z,100852.22
2022-11-25T12:47:11.899Z,100857.50
2022-11-25T12:52:32.272Z,100859.22
2022-11-25T12:57:56.930Z,100869.69
2022-11-25T13:03:28.864Z,100875.81
2022-11-25T13:08:43.442Z,100886.25
2022-11-25T13:13:51.421Z,100895.81
2022-11-25T13:18:53.466Z,100896.38
2022-11-25T13:23:57.171Z,100899.81
2022-11-25T13:28:59.107Z,100900.25
2022-11-25T13:34:25.446Z,100908.97
2022-11-25T13:39:32.567Z,100908.88
2022-11-25T13:44:35.951Z,100910.50
2022-11-25T13:49:43.352Z,100917.72
2022-11-25T13:54:48.281Z,100926.44
2022-11-25T13:59:52.162Z,100938.66
2022-11-25T14:04:54.840Z,100938.66
2022-11-25T14:10:07.816Z,100939.31
2022-11-25T14:15:29.930Z,100944.47
2022-11-25T14:20:36.439Z,100950.06
2022-11-25T14:25:46.335Z,100947.25
2022-11-25T14:30:53.546Z,100952.63
2022-11-25T14:35:56.208Z,100958.78
2022-11-25T14:41:01.539Z,100962.28
2022-11-25T14:46:10.800Z,100969.28
2022-11-25T14:51:16.505Z,100976.03
2022-11-25T14:56:24.352Z,100984.09
2022-11-25T15:01:26.997Z,100984.94
2022-11-25T15:06:29.075Z,100991.03
2022-11-25T15:11:33.102Z,100994.56
2022-11-25T15:16:35.851Z,100997.09
2022-11-25T15:22:07.042Z,101001.56
2022-11-25T15:27:02.709Z,101002.47
2022-11-25T15:32:04.776Z,101006.06
2022-11-25T15:37:06.573Z,101011.97
2022-11-25T15:42:16.209Z,101015.63
2022-11-25T15:47:21.111Z,101019.09
2022-11-25T15:52:22.888Z,101024.34
2022-11-25T15:57:28.044Z,101027.81
2022-11-25T16:02:40.005Z,101041.00
2022-11-25T16:07:59.203Z,101035.72
2022-11-25T16:13:36.663Z,101045.31
2022-11-25T16:18:41.358Z,101055.78
2022-11-25T16:23:44.661Z,101061.88
2022-11-25T16:28:55.184Z,101072.41
2022-11-25T16:34:00.443Z,101076.84
2022-11-25T16:39:02.193Z,101077.72
2022-11-25T16:44:08.732Z,101095.22
2022-11-25T16:49:12.148Z,101097.75
2022-11-25T16:54:14.316Z,101103.00
2022-11-25T16:59:18.835Z,101107.38
2022-11-25T17:04:20.618Z,101116.13
2022-11-25T17:09:22.377Z,101122.13
2022-11-25T17:14:28.572Z,101116.88
2022-11-25T17:19:30.532Z,101134.38
2022-11-25T17:24:33.158Z,101131.81
2022-11-25T17:29:38.088Z,101141.41
2022-11-25T17:34:39.878Z,101150.31
2022-11-25T17:39:41.747Z,101166.91
2022-11-25T17:44:47.630Z,101166.06
2022-11-25T17:49:53.308Z,101170.44
2022-11-25T17:54:55.345Z,101178.31
2022-11-25T17:59:59.047Z,101180.94
2022-11-25T18:05:01.240Z,101187.09
2022-11-25T18:10:03.207Z,101196.69
2022-11-25T18:15:10.570Z,101206.34
2022-11-25T18:20:16.876Z,101197.53
2022-11-25T18:25:19.937Z,101205.44
2022-11-25T18:30:25.173Z,101216.81
2022-11-25T18:35:34.180Z,101226.44
2022-11-25T18:40:42.475Z,101229.94
2022-11-25T18:45:45.763Z,101229.88
2022-11-25T18:50:47.907Z,101234.19
2022-11-25T18:55:51.212Z,101245.53
2022-11-25T19:00:54.632Z,101260.56
2022-11-25T19:05:59.283Z,101252.72
2022-11-25T19:11:01.068Z,101264.06
2022-11-25T19:16:06.935Z,101275.44
2022-11-25T19:21:09.982Z,101273.63
2022-11-25T19:26:14.228Z,101285.00
2022-11-25T19:31:17.790Z,101291.88
2022-11-25T19:36:22.389Z,101297.03
2022-11-25T19:41:24.384Z,101306.59
2022-11-25T19:46:33.219Z,101309.41
2022-11-25T19:51:38.930Z,101317.09
2022-11-25T19:56:41.236Z,101333.84
2022-11-25T20:01:44.898Z,101333.88
2022-11-25T20:06:47.050Z,101345.22
2022-11-25T20:11:54.243Z,101349.69
2022-11-25T20:16:57.840Z,101354.97
2022-11-25T20:21:59.822Z,101366.34
2022-11-25T20:27:01.717Z,101369.00
2022-11-25T20:32:15.370Z,101380.31
2022-11-25T20:37:23.663Z,101394.16
2022-11-25T20:42:25.480Z,101399.53
2022-11-25T20:47:29.979Z,101403.13
2022-11-25T20:52:31.908Z,101412.72
2022-11-25T20:57:36.338Z,101422.22
2022-11-25T21:02:39.565Z,101425.72
2022-11-25T21:07:41.443Z,101420.69
2022-11-25T21:12:43.370Z,101437.16
2022-11-25T21:17:46.796Z,101434.41
2022-11-25T21:22:50.230Z,101443.31
2022-11-25T21:27:52.351Z,101447.75
2022-11-25T21:32:56.078Z,101459.94
2022-11-25T21:37:57.925Z,101466.09
2022-11-25T21:43:02.758Z,101468.66
2022-11-25T21:48:09.536Z,101476.44
2022-11-25T21:53:11.269Z,101477.50
2022-11-25T21:58:18.414Z,101488.97
2022-11-25T22:03:22.025Z,101495.00
2022-11-25T22:08:23.984Z,101497.66
2022-11-25T22:13:29.011Z,101502.03
2022-11-25T22:18:33.449Z,101508.22
2022-11-25T22:23:35.235Z,101515.28
2022-11-25T22:28:37.145Z,101511.84
2022-11-25T22:33:40.403Z,101512.56
2022-11-25T22:38:42.231Z,101524.75
2022-11-25T22:43:45.469Z,101535.34
2022-11-25T22:48:48.603Z,101535.38
2022-11-25T22:53:50.791Z,101541.56
2022-11-25T22:58:53.789Z,101545.16
2022-11-25T23:03:56.920Z,101549.53
2022-11-25T23:08:58.748Z,101552.16
2022-11-25T23:14:00.531Z,101550.63
2022-11-25T23:19:07.266Z,101556.75
2022-11-25T23:24:11.511Z,101565.56
2022-11-25T23:29:13.380Z,101577.81
2022-11-25T23:34:16.531Z,101581.28
2022-11-25T23:39:19.681Z,101583.88
2022-11-25T23:44:23.884Z,101586.47
2022-11-25T23:49:28.246Z,101589.16
2022-11-25T23:54:31.837Z,101605.78
2022-11-25T23:59:33.618Z,101610.13
